Time;durP1;ratioP1;P1;durP2;ratioP2;P2;SDS_P1;SDS_P2;PMS_P1;PMS_P2;Temp;Humidity;BMP_temperature;BMP_pressure;BME280_temperature;BME280_humidity;BME280_pressure;Samples;Min_cycle;Max_cycle;Signal;HPM_P1;HPM_P2
2023/04/07 00:01:16;;;;;;;10.68;7.97;;;7.40;99.90;;;;;;5044193;28;20052;-75
2023/04/07 00:03:42;;;;;;;9.13;7.22;;;7.30;99.90;;;;;;5044317;28;20087;-75
2023/04/07 00:06:09;;;;;;;8.05;7.15;;;7.30;99.90;;;;;;5046220;28;20385;-76
2023/04/07 00:08:35;;;;;;;7.43;6.10;;;7.30;99.90;;;;;;5036664;28;20052;-75
2023/04/07 00:11:00;;;;;;;9.30;6.28;;;7.30;99.90;;;;;;5026069;28;20049;-76
2023/04/07 00:13:26;;;;;;;11.10;7.15;;;7.30;99.90;;;;;;5024566;28;20530;-76
2023/04/07 00:15:51;;;;;;;9.10;8.23;;;7.30;99.90;;;;;;5025735;28;20044;-77
2023/04/07 00:18:17;;;;;;;13.30;7.50;;;7.40;99.90;;;;;;5031127;28;20153;-76
2023/04/07 00:20:43;;;;;;;8.38;7.03;;;7.40;99.90;;;;;;5045376;28;20033;-75
2023/04/07 00:23:08;;;;;;;9.68;8.13;;;7.40;99.90;;;;;;5046099;28;20045;-76
2023/04/07 00:25:34;;;;;;;8.00;6.55;;;7.40;99.90;;;;;;5044508;28;20041;-76
2023/04/07 00:28:00;;;;;;;12.27;8.10;;;7.30;99.90;;;;;;5041465;28;20041;-76
2023/04/07 00:30:25;;;;;;;8.73;7.88;;;7.40;99.90;;;;;;5025673;28;20033;-76
2023/04/07 00:32:51;;;;;;;11.20;8.20;;;7.40;99.90;;;;;;5024014;28;20472;-75
2023/04/07 00:35:17;;;;;;;10.73;7.95;;;7.40;99.90;;;;;;5025419;28;20052;-76
2023/04/07 00:37:42;;;;;;;11.07;7.93;;;7.40;99.90;;;;;;5025031;28;20107;-76
2023/04/07 00:40:08;;;;;;;10.73;7.85;;;7.30;99.90;;;;;;5045415;28;20045;-75
2023/04/07 00:42:34;;;;;;;11.45;9.23;;;7.40;99.90;;;;;;5045030;28;20037;-75
2023/04/07 00:45:00;;;;;;;9.13;8.20;;;7.30;99.90;;;;;;5027366;28;20072;-75
2023/04/07 00:47:26;;;;;;;7.70;6.95;;;7.40;99.90;;;;;;5035301;28;20045;-77
2023/04/07 00:49:51;;;;;;;11.38;8.32;;;7.40;99.90;;;;;;5042530;28;20041;-75
2023/04/07 00:52:26;;;;;;;9.90;6.50;;;7.40;99.90;;;;;;5043770;28;20753;-75
2023/04/07 00:54:55;;;;;;;8.90;7.32;;;7.40;99.90;;;;;;5045608;28;20060;-75
2023/04/07 00:57:21;;;;;;;10.35;7.55;;;7.40;99.90;;;;;;5043875;28;20052;-76
2023/04/07 00:59:49;;;;;;;8.02;7.15;;;7.40;99.90;;;;;;5026851;28;20079;-75
2023/04/07 01:02:55;;;;;;;8.48;6.07;;;7.40;99.90;;;;;;5023285;28;20208;-75
2023/04/07 01:05:45;;;;;;;10.25;8.10;;;7.40;99.90;;;;;;5025688;28;20092;-75
2023/04/07 01:08:23;;;;;;;12.15;9.48;;;7.40;99.90;;;;;;5080545;22;20049;-75
2023/04/07 01:11:26;;;;;;;10.05;6.88;;;7.40;99.90;;;;;;4984570;28;20141;-75
2023/04/07 01:13:53;;;;;;;10.93;8.57;;;7.40;99.90;;;;;;4984466;28;20046;-76
2023/04/07 01:16:29;;;;;;;10.90;7.75;;;7.40;99.90;;;;;;4984793;28;20038;-75
2023/04/07 01:19:03;;;;;;;8.15;7.03;;;7.40;99.90;;;;;;4984392;28;20046;-76
2023/04/07 01:21:33;;;;;;;9.35;6.75;;;7.40;99.90;;;;;;4985535;28;20128;-76
2023/04/07 01:24:11;;;;;;;11.15;7.22;;;7.40;99.90;;;;;;4985893;28;20039;-76
2023/04/07 01:26:38;;;;;;;10.43;7.75;;;7.40;99.90;;;;;;4985142;28;20038;-76
2023/04/07 01:29:22;;;;;;;10.15;6.80;;;7.40;99.90;;;;;;4985394;28;20046;-76
2023/04/07 01:31:49;;;;;;;11.98;7.70;;;7.40;99.90;;;;;;4984283;28;20489;-76
2023/04/07 01:34:16;;;;;;;13.27;9.45;;;7.40;99.90;;;;;;4985643;28;20046;-76
2023/04/07 01:36:42;;;;;;;9.23;7.00;;;7.40;99.90;;;;;;4984840;28;20117;-76
2023/04/07 01:39:09;;;;;;;10.50;7.78;;;7.40;99.90;;;;;;4985292;28;20042;-76
2023/04/07 01:41:36;;;;;;;11.40;7.05;;;7.40;99.90;;;;;;4984734;28;20073;-76
2023/04/07 01:44:03;;;;;;;11.48;8.52;;;7.40;99.90;;;;;;4985471;28;20046;-76
2023/04/07 01:46:29;;;;;;;8.05;7.13;;;7.40;99.90;;;;;;4983929;28;20042;-76
2023/04/07 01:48:55;;;;;;;13.32;9.00;;;7.40;99.90;;;;;;4965663;28;20051;-77
2023/04/07 01:51:22;;;;;;;8.60;7.53;;;7.40;99.90;;;;;;4948793;28;20730;-76
2023/04/07 01:53:49;;;;;;;15.60;7.47;;;7.40;99.90;;;;;;4965574;28;20054;-76
2023/04/07 01:56:15;;;;;;;14.63;10.43;;;7.40;99.90;;;;;;4966719;28;20043;-76
2023/04/07 01:58:41;;;;;;;11.93;7.60;;;7.40;99.90;;;;;;4983094;28;20072;-76
2023/04/07 02:01:07;;;;;;;10.35;8.90;;;7.40;99.90;;;;;;4983671;28;20488;-76
2023/04/07 02:03:50;;;;;;;11.55;5.75;;;7.50;99.90;;;;;;4984545;28;20049;-76
2023/04/07 02:06:20;;;;;;;13.73;9.18;;;7.40;99.90;;;;;;4983962;28;20043;-76
2023/04/07 02:08:50;;;;;;;11.63;8.13;;;7.50;99.90;;;;;;4984243;28;20054;-76
2023/04/07 02:11:19;;;;;;;14.05;7.15;;;7.50;99.90;;;;;;4983484;28;20050;-76
2023/04/07 02:13:46;;;;;;;7.60;6.82;;;7.40;99.90;;;;;;4984559;28;20631;-77
2023/04/07 02:16:12;;;;;;;9.13;6.07;;;7.40;99.90;;;;;;4984160;28;20454;-76
2023/04/07 02:18:39;;;;;;;12.32;7.50;;;7.40;99.90;;;;;;4984375;28;20093;-76
2023/04/07 02:21:07;;;;;;;8.05;5.88;;;7.50;99.90;;;;;;4984630;28;20053;-76
2023/04/07 02:23:34;;;;;;;8.60;7.60;;;7.50;99.90;;;;;;4983532;28;20054;-77
2023/04/07 02:26:00;;;;;;;8.73;7.47;;;7.50;99.90;;;;;;4984783;28;20073;-76
2023/04/07 02:28:25;;;;;;;8.98;7.60;;;7.50;99.90;;;;;;4984577;28;20144;-77
2023/04/07 02:30:51;;;;;;;11.10;6.90;;;7.50;99.90;;;;;;4984362;28;20046;-76
2023/04/07 02:33:17;;;;;;;9.63;6.25;;;7.50;99.90;;;;;;4984532;28;20046;-76
2023/04/07 02:35:42;;;;;;;7.28;6.13;;;7.50;99.90;;;;;;4984449;28;20047;-76
2023/04/07 02:38:08;;;;;;;7.65;6.20;;;7.50;99.90;;;;;;4984536;28;20133;-76
2023/04/07 02:40:35;;;;;;;8.60;7.68;;;7.50;99.90;;;;;;4984044;28;20117;-76
2023/04/07 02:43:01;;;;;;;10.40;7.10;;;7.50;99.90;;;;;;4984547;28;20054;-77
2023/04/07 02:45:26;;;;;;;7.93;5.95;;;7.50;99.90;;;;;;4982728;28;20048;-77
2023/04/07 02:47:52;;;;;;;8.27;4.93;;;7.60;99.90;;;;;;4973238;28;20108;-77
2023/04/07 02:50:18;;;;;;;6.32;5.13;;;7.50;99.90;;;;;;4965411;28;20094;-77
2023/04/07 02:52:43;;;;;;;8.23;5.38;;;7.50;99.90;;;;;;4964817;28;20047;-77
2023/04/07 02:55:09;;;;;;;5.97;5.38;;;7.60;99.90;;;;;;4965041;28;20046;-77
2023/04/07 02:57:34;;;;;;;5.57;5.05;;;7.60;99.90;;;;;;4974119;28;20044;-77
2023/04/07 03:00:00;;;;;;;7.70;3.88;;;7.60;99.90;;;;;;4984642;28;20050;-77
2023/04/07 03:02:26;;;;;;;8.38;5.28;;;7.60;99.90;;;;;;4983825;28;20564;-77
2023/04/07 03:04:52;;;;;;;8.80;5.03;;;7.60;99.90;;;;;;4984549;28;20507;-76
2023/04/07 03:07:17;;;;;;;9.07;4.53;;;7.60;99.90;;;;;;4983776;28;20046;-76
2023/04/07 03:09:43;;;;;;;6.70;3.83;;;7.60;99.90;;;;;;4983716;28;20785;-77
2023/04/07 03:12:09;;;;;;;7.55;3.38;;;7.60;99.90;;;;;;4984108;28;20058;-77
2023/04/07 03:14:35;;;;;;;6.43;4.63;;;7.60;99.90;;;;;;4986457;28;20457;-76
2023/04/07 03:17:00;;;;;;;7.93;5.10;;;7.60;99.90;;;;;;4987117;28;20046;-76
2023/04/07 03:19:26;;;;;;;10.10;6.68;;;7.60;99.90;;;;;;4987366;28;20041;-77
2023/04/07 03:21:51;;;;;;;9.63;6.47;;;7.60;99.90;;;;;;4987858;28;20074;-76
2023/04/07 03:24:17;;;;;;;8.15;5.38;;;7.60;99.90;;;;;;5002914;28;20038;-76
2023/04/07 03:26:43;;;;;;;7.15;5.63;;;7.60;99.90;;;;;;4987649;28;20480;-77
2023/04/07 03:29:08;;;;;;;11.02;6.30;;;7.60;99.90;;;;;;4986111;28;20408;-77
2023/04/07 03:31:35;;;;;;;9.75;6.22;;;7.60;99.90;;;;;;4986787;28;20092;-76
2023/04/07 03:34:00;;;;;;;13.88;6.47;;;7.60;99.90;;;;;;4987700;28;20038;-77
2023/04/07 03:36:26;;;;;;;13.30;6.57;;;7.60;99.90;;;;;;4987032;28;20527;-77
2023/04/07 03:38:52;;;;;;;13.18;6.38;;;7.60;99.90;;;;;;4988016;28;20408;-77
2023/04/07 03:41:18;;;;;;;8.32;6.30;;;7.60;99.90;;;;;;4987486;28;20049;-76
2023/04/07 03:43:43;;;;;;;12.15;7.63;;;7.60;99.90;;;;;;4986790;28;20046;-77
2023/04/07 03:46:09;;;;;;;14.30;8.55;;;7.60;99.90;;;;;;4986775;28;20049;-76
2023/04/07 03:48:34;;;;;;;11.45;5.95;;;7.60;99.90;;;;;;4987043;28;20038;-76
2023/04/07 03:51:00;;;;;;;10.85;7.22;;;7.60;99.90;;;;;;4986032;28;20129;-77
2023/04/07 03:53:26;;;;;;;12.15;7.30;;;7.70;99.90;;;;;;4987005;28;20757;-77
2023/04/07 03:55:51;;;;;;;11.43;6.72;;;7.60;99.90;;;;;;4987124;28;20066;-77
2023/04/07 03:58:17;;;;;;;10.23;6.30;;;7.70;99.90;;;;;;4987170;28;20129;-77
2023/04/07 04:00:43;;;;;;;12.18;5.30;;;7.60;99.90;;;;;;4986152;28;20038;-76
2023/04/07 04:03:09;;;;;;;8.80;7.10;;;7.60;99.90;;;;;;4987332;28;20122;-77
2023/04/07 04:05:35;;;;;;;9.10;6.97;;;7.60;99.90;;;;;;4986358;28;20034;-77
2023/04/07 04:08:00;;;;;;;12.25;7.07;;;7.70;99.90;;;;;;4985820;28;20441;-77
2023/04/07 04:10:26;;;;;;;9.07;6.35;;;7.60;99.90;;;;;;4985540;28;20051;-77
2023/04/07 04:12:51;;;;;;;11.40;7.57;;;7.70;99.90;;;;;;4987474;28;20439;-76
2023/04/07 04:15:17;;;;;;;8.80;5.72;;;7.70;99.90;;;;;;4984423;28;20046;-77
2023/04/07 04:17:42;;;;;;;10.82;7.93;;;7.60;99.90;;;;;;5001880;28;20049;-77
2023/04/07 04:20:09;;;;;;;11.23;7.28;;;7.70;99.90;;;;;;4986905;28;20046;-77
2023/04/07 04:22:35;;;;;;;8.73;7.43;;;7.70;99.90;;;;;;4985530;28;20041;-77
2023/04/07 04:25:00;;;;;;;10.10;6.53;;;7.60;99.90;;;;;;4986000;28;20454;-77
2023/04/07 04:27:26;;;;;;;8.35;7.32;;;7.70;99.90;;;;;;4986226;28;20042;-77
2023/04/07 04:29:52;;;;;;;11.40;7.13;;;7.60;99.90;;;;;;4985601;28;20073;-76
2023/04/07 04:32:18;;;;;;;13.85;7.55;;;7.60;99.90;;;;;;4985774;28;20432;-77
2023/04/07 04:34:44;;;;;;;8.38;7.50;;;7.60;99.90;;;;;;4986305;28;20105;-77
2023/04/07 04:37:10;;;;;;;11.77;8.43;;;7.60;99.90;;;;;;4986212;28;20125;-76
2023/04/07 04:39:36;;;;;;;8.80;6.85;;;7.60;99.90;;;;;;4984963;28;20349;-76
2023/04/07 04:42:02;;;;;;;9.80;6.63;;;7.60;99.90;;;;;;4985443;28;20100;-77
2023/04/07 04:44:29;;;;;;;11.90;6.57;;;7.60;99.90;;;;;;4984670;28;20537;-76
2023/04/07 04:46:55;;;;;;;8.00;6.32;;;7.60;99.90;;;;;;4985300;28;20042;-77
2023/04/07 04:49:20;;;;;;;8.60;6.28;;;7.60;99.90;;;;;;4985994;28;20053;-76
2023/04/07 04:51:46;;;;;;;9.07;5.75;;;7.60;99.90;;;;;;4986370;28;20108;-77
2023/04/07 04:54:11;;;;;;;11.25;6.15;;;7.60;99.90;;;;;;4986564;28;20038;-77
2023/04/07 04:56:37;;;;;;;10.63;7.45;;;7.60;99.90;;;;;;4985662;28;20407;-77
2023/04/07 04:59:03;;;;;;;8.43;6.40;;;7.60;99.90;;;;;;4985198;28;20054;-77
2023/04/07 05:01:29;;;;;;;12.20;7.35;;;7.60;99.90;;;;;;4983704;28;20046;-77
2023/04/07 05:03:55;;;;;;;11.90;9.48;;;7.60;99.90;;;;;;4984370;28;20085;-77
2023/04/07 05:06:21;;;;;;;8.75;7.70;;;7.60;99.90;;;;;;4986556;28;20070;-77
2023/04/07 05:08:46;;;;;;;8.68;6.43;;;7.60;99.90;;;;;;5000739;28;20575;-77
2023/04/07 05:11:12;;;;;;;17.58;7.47;;;7.60;99.90;;;;;;4985453;28;20173;-77
2023/04/07 05:13:37;;;;;;;10.35;6.13;;;7.60;99.90;;;;;;4974902;28;20085;-78
2023/04/07 05:16:06;;;;;;;9.18;7.35;;;7.60;99.90;;;;;;4984627;28;20125;-77
2023/04/07 05:18:31;;;;;;;13.32;6.85;;;7.60;99.90;;;;;;4983034;28;20185;-78
2023/04/07 05:20:57;;;;;;;10.20;7.78;;;7.60;99.90;;;;;;4983835;28;20092;-77
2023/04/07 05:23:23;;;;;;;17.00;6.90;;;7.60;99.90;;;;;;4985661;28;20050;-76
2023/04/07 05:25:49;;;;;;;9.90;8.05;;;7.60;99.90;;;;;;4983413;28;20038;-76
2023/04/07 05:28:14;;;;;;;11.43;8.55;;;7.60;99.90;;;;;;4985588;28;20050;-76
2023/04/07 05:30:40;;;;;;;9.00;7.03;;;7.60;99.90;;;;;;4984250;28;20046;-76
2023/04/07 05:33:06;;;;;;;10.55;7.22;;;7.60;99.90;;;;;;4984279;28;20046;-76
2023/04/07 05:35:31;;;;;;;9.18;6.30;;;7.60;99.90;;;;;;4984750;28;20717;-76
2023/04/07 05:37:57;;;;;;;11.40;6.93;;;7.60;99.90;;;;;;4985180;28;20053;-76
2023/04/07 05:40:23;;;;;;;10.27;6.38;;;7.60;99.90;;;;;;4985858;28;20077;-75
2023/04/07 05:42:49;;;;;;;8.32;6.43;;;7.60;99.90;;;;;;4967651;28;20382;-76
2023/04/07 05:45:14;;;;;;;9.43;8.25;;;7.60;99.90;;;;;;4983901;28;20053;-76
2023/04/07 05:47:40;;;;;;;11.02;7.75;;;7.60;99.90;;;;;;4984862;28;20464;-76
2023/04/07 05:50:06;;;;;;;7.45;6.70;;;7.60;99.90;;;;;;4967567;28;20069;-76
2023/04/07 05:52:32;;;;;;;9.85;5.88;;;7.60;99.90;;;;;;4984645;28;20038;-76
2023/04/07 05:54:57;;;;;;;12.35;7.68;;;7.60;99.90;;;;;;4983634;28;20042;-75
2023/04/07 05:57:23;;;;;;;9.10;6.75;;;7.60;99.90;;;;;;4985151;28;20531;-76
2023/04/07 05:59:48;;;;;;;8.23;6.93;;;7.60;99.90;;;;;;4999967;28;20050;-74
2023/04/07 06:02:14;;;;;;;10.95;7.07;;;7.60;99.90;;;;;;4983597;28;20034;-76
2023/04/07 06:04:40;;;;;;;9.68;6.47;;;7.60;99.90;;;;;;4984425;28;20452;-76
2023/04/07 06:07:06;;;;;;;9.43;7.38;;;7.60;99.90;;;;;;4984771;28;20038;-75
2023/04/07 06:09:31;;;;;;;8.68;6.20;;;7.60;99.90;;;;;;4984369;28;20428;-75
2023/04/07 06:11:57;;;;;;;8.77;6.30;;;7.60;99.90;;;;;;4984873;28;20042;-76
2023/04/07 06:14:24;;;;;;;11.63;9.27;;;7.60;99.90;;;;;;4984904;28;20129;-76
2023/04/07 06:16:50;;;;;;;9.38;7.35;;;7.70;99.90;;;;;;4981322;28;20250;-78
2023/04/07 06:19:16;;;;;;;9.45;6.90;;;7.60;99.90;;;;;;4982604;28;20532;-79
2023/04/07 06:21:41;;;;;;;9.10;6.95;;;7.70;99.90;;;;;;4982982;28;20121;-78
2023/04/07 06:24:07;;;;;;;10.07;6.32;;;7.70;99.90;;;;;;4967611;28;20117;-78
2023/04/07 06:26:32;;;;;;;7.75;6.32;;;7.60;99.90;;;;;;4975103;28;20544;-79
2023/04/07 06:28:58;;;;;;;9.63;5.57;;;7.70;99.90;;;;;;4983016;28;20133;-79
2023/04/07 06:31:24;;;;;;;6.45;5.68;;;7.70;99.90;;;;;;4983327;28;20081;-79
2023/04/07 06:33:50;;;;;;;9.35;6.00;;;7.70;99.90;;;;;;4982808;28;20259;-79
2023/04/07 06:36:16;;;;;;;7.30;4.65;;;7.70;99.90;;;;;;4966063;28;20042;-84
2023/04/07 06:38:42;;;;;;;5.10;3.88;;;7.70;99.90;;;;;;4975260;28;20088;-76
2023/04/07 06:41:11;;;;;;;9.35;6.38;;;7.70;99.90;;;;;;4983257;28;20026;-76
2023/04/07 06:43:37;;;;;;;7.35;4.50;;;7.70;99.90;;;;;;4983411;28;20042;-76
2023/04/07 06:46:03;;;;;;;6.82;5.13;;;7.60;99.90;;;;;;4982172;28;20480;-81
2023/04/07 06:48:28;;;;;;;6.82;5.30;;;7.60;99.90;;;;;;4971708;28;20046;-77
2023/04/07 06:50:54;;;;;;;7.28;4.32;;;7.70;99.90;;;;;;4987801;28;20049;-76
2023/04/07 06:53:19;;;;;;;7.20;4.47;;;7.70;99.90;;;;;;4986565;28;20508;-78
2023/04/07 06:55:45;;;;;;;9.63;4.90;;;7.70;99.90;;;;;;4985435;28;20137;-76
2023/04/07 06:58:11;;;;;;;6.35;4.82;;;7.70;99.90;;;;;;4985680;28;20042;-77
2023/04/07 07:00:36;;;;;;;7.03;5.53;;;7.70;99.90;;;;;;4978025;28;20485;-76
2023/04/07 07:03:02;;;;;;;6.38;5.10;;;7.80;99.90;;;;;;4967427;28;20047;-78
2023/04/07 07:05:28;;;;;;;6.88;4.65;;;7.80;99.90;;;;;;4986496;28;20030;-79
2023/04/07 07:07:53;;;;;;;8.23;4.97;;;7.80;99.90;;;;;;4994821;28;20489;-77
2023/04/07 07:10:21;;;;;;;6.65;5.38;;;7.80;99.90;;;;;;4966502;28;20363;-77
2023/04/07 07:12:47;;;;;;;6.00;4.07;;;7.80;99.90;;;;;;4977890;28;20436;-77
2023/04/07 07:15:13;;;;;;;8.25;5.38;;;7.80;99.90;;;;;;5001254;28;20353;-77
2023/04/07 07:17:38;;;;;;;8.20;4.50;;;7.80;99.90;;;;;;4979765;28;20122;-77
2023/04/07 07:20:05;;;;;;;7.53;4.35;;;7.90;99.90;;;;;;4974844;28;20075;-78
2023/04/07 07:22:30;;;;;;;6.78;4.40;;;7.90;99.90;;;;;;4986162;28;20545;-77
2023/04/07 07:24:56;;;;;;;7.97;4.75;;;7.90;99.90;;;;;;4985919;28;20049;-78
2023/04/07 07:27:21;;;;;;;6.88;5.38;;;7.90;99.90;;;;;;4987277;28;20042;-78
2023/04/07 07:29:47;;;;;;;5.55;4.25;;;7.80;99.90;;;;;;5001566;28;20039;-77
2023/04/07 07:32:12;;;;;;;5.47;4.30;;;7.90;99.90;;;;;;4986468;28;20081;-78
2023/04/07 07:34:38;;;;;;;6.50;4.45;;;7.90;99.90;;;;;;4971450;28;20052;-78
2023/04/07 07:37:04;;;;;;;7.40;5.25;;;7.90;99.90;;;;;;4985915;28;20054;-78
2023/04/07 07:39:29;;;;;;;7.63;4.25;;;7.90;99.90;;;;;;4966122;28;20420;-78
2023/04/07 07:41:56;;;;;;;4.20;3.45;;;7.90;99.90;;;;;;4975672;28;20540;-78
2023/04/07 07:44:22;;;;;;;5.70;3.60;;;7.90;99.90;;;;;;4988101;28;20409;-78
2023/04/07 07:46:49;;;;;;;5.93;4.50;;;7.90;99.90;;;;;;4984223;28;20489;-77
2023/04/07 07:49:14;;;;;;;6.07;4.82;;;7.90;99.90;;;;;;4985471;28;20053;-78
2023/04/07 07:51:40;;;;;;;6.25;3.72;;;7.90;99.90;;;;;;4982920;28;20050;-77
2023/04/07 07:54:05;;;;;;;5.28;4.03;;;8.00;99.90;;;;;;4973560;28;20117;-77
2023/04/07 07:56:31;;;;;;;6.60;4.93;;;8.00;99.90;;;;;;4977139;28;20050;-78
2023/04/07 07:58:58;;;;;;;5.97;4.20;;;8.00;99.90;;;;;;4974455;28;20059;-78
2023/04/07 08:01:23;;;;;;;5.60;4.97;;;8.00;99.90;;;;;;4981627;28;20039;-76
2023/04/07 08:03:49;;;;;;;5.30;3.78;;;8.00;99.90;;;;;;4981429;28;20408;-79
2023/04/07 08:06:15;;;;;;;5.63;4.07;;;8.00;99.90;;;;;;4980272;28;20454;-80
2023/04/07 08:08:41;;;;;;;5.30;4.57;;;8.00;99.90;;;;;;4985462;28;20568;-79
2023/04/07 08:11:06;;;;;;;6.30;4.22;;;8.00;99.90;;;;;;4985072;28;20046;-80
2023/04/07 08:13:32;;;;;;;7.28;4.93;;;8.00;99.90;;;;;;4983173;28;20125;-81
2023/04/07 08:15:57;;;;;;;5.97;4.32;;;8.00;99.90;;;;;;4972222;28;20494;-79
2023/04/07 08:18:24;;;;;;;6.63;5.38;;;8.00;99.90;;;;;;4976194;28;20062;-82
2023/04/07 08:20:50;;;;;;;8.43;5.13;;;8.00;99.90;;;;;;4984972;28;20070;-76
2023/04/07 08:23:16;;;;;;;7.70;5.28;;;8.10;99.90;;;;;;5007607;28;21018;-76
2023/04/07 08:25:41;;;;;;;7.25;4.25;;;8.10;99.90;;;;;;4980073;28;20073;-77
2023/04/07 08:28:07;;;;;;;9.50;5.38;;;8.10;99.90;;;;;;4984177;28;20049;-77
2023/04/07 08:30:32;;;;;;;6.70;4.45;;;8.10;99.90;;;;;;4982100;28;20125;-78
2023/04/07 08:32:58;;;;;;;8.00;3.60;;;8.10;99.90;;;;;;4968320;28;20073;-77
2023/04/07 08:35:24;;;;;;;7.25;4.63;;;8.10;99.90;;;;;;5000798;28;20039;-78
2023/04/07 08:37:49;;;;;;;6.18;5.47;;;8.10;99.90;;;;;;4986660;28;20548;-78
2023/04/07 08:40:16;;;;;;;4.47;3.92;;;8.10;99.90;;;;;;4969531;28;20118;-78
2023/04/07 08:42:48;;;;;;;6.88;5.45;;;8.20;99.90;;;;;;4980247;28;20082;-78
2023/04/07 08:45:16;;;;;;;7.82;4.40;;;8.20;99.90;;;;;;4979923;28;20038;-78
2023/04/07 08:47:42;;;;;;;6.55;4.88;;;8.20;99.90;;;;;;4985360;28;20050;-78
2023/04/07 08:50:10;;;;;;;5.53;4.93;;;8.20;99.90;;;;;;4985290;28;20089;-78
2023/04/07 08:52:48;;;;;;;7.00;4.28;;;8.30;99.90;;;;;;4984888;28;20089;-80
2023/04/07 08:55:14;;;;;;;5.18;4.32;;;8.30;99.90;;;;;;4984393;28;20137;-79
2023/04/07 08:57:41;;;;;;;7.78;5.55;;;8.30;99.90;;;;;;4986015;28;20137;-79
2023/04/07 09:00:07;;;;;;;10.98;6.22;;;8.30;99.90;;;;;;4985126;28;20046;-79
2023/04/07 09:02:38;;;;;;;6.72;3.88;;;8.30;99.90;;;;;;4984020;28;20126;-79
2023/04/07 09:05:06;;;;;;;8.35;6.07;;;8.40;99.90;;;;;;4986013;28;20089;-79
2023/04/07 09:07:33;;;;;;;7.18;5.53;;;8.40;99.90;;;;;;4981240;28;20097;-80
2023/04/07 09:10:00;;;;;;;9.43;3.70;;;8.40;99.90;;;;;;4968245;28;20050;-80
2023/04/07 09:12:27;;;;;;;8.90;5.88;;;8.40;99.90;;;;;;4984226;28;20061;-80
2023/04/07 09:14:53;;;;;;;7.30;4.88;;;8.40;99.90;;;;;;4981418;28;20038;-80
2023/04/07 09:17:20;;;;;;;7.10;5.13;;;8.50;99.90;;;;;;4965206;28;20058;-80
2023/04/07 09:19:46;;;;;;;8.80;5.57;;;8.50;99.90;;;;;;4982621;28;20152;-80
2023/04/07 09:22:13;;;;;;;10.73;6.70;;;8.50;99.90;;;;;;4986159;28;20061;-80
2023/04/07 09:24:40;;;;;;;8.30;6.25;;;8.60;99.90;;;;;;4985081;28;20382;-80
2023/04/07 09:27:14;;;;;;;8.20;5.45;;;8.60;99.90;;;;;;4986183;28;20047;-79
2023/04/07 09:29:41;;;;;;;9.45;6.78;;;8.60;99.90;;;;;;4967184;28;20058;-80
2023/04/07 09:32:07;;;;;;;11.27;6.78;;;8.60;99.90;;;;;;4985507;28;20484;-80
2023/04/07 09:34:38;;;;;;;9.23;6.05;;;8.60;99.90;;;;;;4985413;28;20068;-80
2023/04/07 09:37:06;;;;;;;10.00;5.85;;;8.60;99.90;;;;;;4985620;28;20077;-80
2023/04/07 09:39:31;;;;;;;10.18;8.00;;;8.60;99.90;;;;;;4985379;28;20120;-80
2023/04/07 09:41:57;;;;;;;10.40;6.40;;;8.70;99.90;;;;;;4978776;28;20121;-80
2023/04/07 09:44:24;;;;;;;8.90;5.32;;;8.70;99.90;;;;;;4973696;28;20042;-80
2023/04/07 09:46:57;;;;;;;10.85;6.70;;;8.80;99.90;;;;;;4987474;28;20034;-80
2023/04/07 09:49:24;;;;;;;7.68;6.15;;;8.80;99.90;;;;;;4984184;28;20053;-81
2023/04/07 09:52:09;;;;;;;7.28;5.72;;;8.90;99.90;;;;;;4983713;28;20050;-80
2023/04/07 09:54:41;;;;;;;11.07;6.15;;;9.00;99.90;;;;;;4968645;28;20047;-80
2023/04/07 09:57:09;;;;;;;9.57;5.13;;;9.00;99.90;;;;;;4965736;28;20042;-81
2023/04/07 09:59:36;;;;;;;8.40;5.90;;;9.00;99.90;;;;;;4969704;28;20054;-78
2023/04/07 10:02:03;;;;;;;7.38;4.93;;;9.00;99.90;;;;;;4970785;28;20097;-79
2023/04/07 10:04:29;;;;;;;11.35;5.63;;;9.10;99.90;;;;;;4966659;28;20118;-80
2023/04/07 10:06:56;;;;;;;7.50;4.82;;;9.10;99.90;;;;;;4976631;28;20042;-81
2023/04/07 10:09:24;;;;;;;6.40;4.47;;;9.10;99.90;;;;;;4970996;28;20050;-79
2023/04/07 10:11:51;;;;;;;6.43;4.93;;;9.10;99.90;;;;;;4983994;28;20050;-79
2023/04/07 10:14:18;;;;;;;6.65;4.88;;;9.20;99.90;;;;;;4983551;28;20160;-80
2023/04/07 10:16:45;;;;;;;7.53;4.90;;;9.20;99.90;;;;;;4982468;28;20081;-79
2023/04/07 10:19:12;;;;;;;5.63;5.05;;;9.20;99.90;;;;;;4984591;28;20337;-79
2023/04/07 10:21:41;;;;;;;7.28;5.03;;;9.20;99.90;;;;;;4976928;28;20089;-79
2023/04/07 10:24:29;;;;;;;5.43;4.30;;;9.20;99.90;;;;;;4979979;28;20046;-80
2023/04/07 10:27:01;;;;;;;6.10;4.25;;;9.20;99.90;;;;;;4978459;28;20039;-79
2023/04/07 10:29:33;;;;;;;4.55;3.60;;;9.20;99.90;;;;;;4973164;28;20078;-79
2023/04/07 10:32:01;;;;;;;6.65;3.50;;;9.20;99.90;;;;;;4984507;28;20377;-79
2023/04/07 10:34:56;;;;;;;8.63;5.40;;;9.20;99.90;;;;;;4983269;28;20038;-79
2023/04/07 10:37:24;;;;;;;6.53;3.60;;;9.30;99.90;;;;;;4960733;28;20186;-78
2023/04/07 10:40:11;;;;;;;8.25;4.20;;;9.30;99.90;;;;;;4967342;28;20042;-79
2023/04/07 10:42:36;;;;;;;8.82;5.18;;;9.20;99.90;;;;;;4974126;28;20050;-79
2023/04/07 10:45:05;;;;;;;5.45;3.85;;;9.20;99.90;;;;;;4972735;28;20133;-79
2023/04/07 10:47:31;;;;;;;8.25;5.10;;;9.20;99.90;;;;;;4983281;28;20051;-79
2023/04/07 10:50:17;;;;;;;6.68;3.78;;;9.20;99.90;;;;;;4983902;28;20469;-79
2023/04/07 10:52:44;;;;;;;5.80;3.53;;;9.30;99.90;;;;;;4983910;28;20397;-79
2023/04/07 10:55:40;;;;;;;4.70;3.67;;;9.30;99.90;;;;;;4984072;28;20125;-79
2023/04/07 10:58:21;;;;;;;5.13;4.63;;;9.40;99.90;;;;;;4983836;28;20125;-80
2023/04/07 11:00:59;;;;;;;7.22;3.33;;;9.40;99.90;;;;;;4982605;28;20038;-79
2023/04/07 11:03:26;;;;;;;4.72;3.80;;;9.40;99.90;;;;;;4982191;28;20081;-79
2023/04/07 11:05:52;;;;;;;4.97;3.42;;;9.50;99.90;;;;;;4964824;28;20042;-79
2023/04/07 11:08:33;;;;;;;7.55;4.30;;;9.40;99.90;;;;;;4963832;28;20494;-80
2023/04/07 11:10:59;;;;;;;5.18;3.70;;;9.50;99.90;;;;;;4967111;28;20059;-79
2023/04/07 11:13:26;;;;;;;5.03;3.45;;;9.50;99.90;;;;;;4964247;28;20121;-79
2023/04/07 11:15:52;;;;;;;6.82;4.35;;;9.60;99.90;;;;;;4965059;28;20054;-79
2023/04/07 11:18:19;;;;;;;7.32;4.47;;;9.60;99.90;;;;;;4974623;28;20047;-79
2023/04/07 11:20:52;;;;;;;5.07;3.78;;;9.60;99.90;;;;;;4972608;28;20121;-79
2023/04/07 11:23:19;;;;;;;8.95;4.22;;;9.70;99.90;;;;;;4969438;28;20564;-79
2023/04/07 11:25:50;;;;;;;6.15;3.13;;;9.70;99.90;;;;;;4976050;28;20093;-79
2023/04/07 11:28:16;;;;;;;3.83;2.85;;;9.80;99.90;;;;;;4964483;28;20121;-78
2023/04/07 11:30:48;;;;;;;7.65;2.50;;;9.90;99.90;;;;;;4969866;28;20058;-79
2023/04/07 11:33:18;;;;;;;5.07;3.70;;;9.90;99.90;;;;;;4974822;28;20349;-79
2023/04/07 11:35:56;;;;;;;5.05;3.40;;;10.00;99.90;;;;;;4985296;28;20327;-79
2023/04/07 11:38:24;;;;;;;5.63;3.33;;;10.00;99.90;;;;;;4987226;28;20061;-79
2023/04/07 11:40:50;;;;;;;5.22;3.47;;;10.00;99.90;;;;;;4974588;28;20129;-79
2023/04/07 11:43:16;;;;;;;6.35;4.43;;;10.10;99.90;;;;;;4966688;28;20161;-79
2023/04/07 11:45:42;;;;;;;4.30;2.25;;;10.20;99.90;;;;;;4982771;28;20385;-79
2023/04/07 11:48:35;;;;;;;6.10;2.90;;;10.20;99.90;;;;;;4986030;28;20041;-81
2023/04/07 11:51:02;;;;;;;4.85;3.28;;;10.20;99.90;;;;;;4959382;28;20105;-79
2023/04/07 11:53:36;;;;;;;3.00;2.17;;;10.20;99.90;;;;;;4985190;28;20046;-80
2023/04/07 11:56:09;;;;;;;4.90;2.47;;;10.30;99.90;;;;;;4981993;28;20046;-79
2023/04/07 11:58:36;;;;;;;2.80;2.15;;;10.30;99.90;;;;;;4986218;28;20090;-80
2023/04/07 12:01:07;;;;;;;3.78;2.28;;;10.40;99.90;;;;;;4985848;28;20050;-79
2023/04/07 12:03:34;;;;;;;5.13;2.57;;;10.40;99.90;;;;;;4983874;28;20092;-80
2023/04/07 12:06:00;;;;;;;4.60;3.50;;;10.50;99.90;;;;;;4974768;28;20070;-79
2023/04/07 12:08:40;;;;;;;4.63;2.60;;;10.50;99.90;;;;;;4989185;28;20056;-80
2023/04/07 12:11:07;;;;;;;4.88;2.40;;;10.60;99.90;;;;;;4973980;28;20419;-80
2023/04/07 12:13:33;;;;;;;3.42;2.67;;;10.60;99.90;;;;;;4979194;28;20045;-80
2023/04/07 12:15:59;;;;;;;4.53;2.90;;;10.70;99.90;;;;;;4999513;28;20058;-79
2023/04/07 12:18:25;;;;;;;5.45;2.83;;;10.70;99.90;;;;;;4972024;28;20507;-81
2023/04/07 12:20:51;;;;;;;4.63;3.28;;;10.80;99.90;;;;;;4968068;28;20039;-79
2023/04/07 12:23:17;;;;;;;4.32;2.78;;;10.90;99.90;;;;;;4994925;28;20378;-77
2023/04/07 12:25:42;;;;;;;6.97;3.45;;;10.90;99.90;;;;;;4977458;28;20096;-77
2023/04/07 12:28:08;;;;;;;3.72;2.45;;;10.90;99.90;;;;;;4984002;28;20043;-77
2023/04/07 12:30:33;;;;;;;3.60;1.52;;;10.80;99.90;;;;;;4984120;28;20042;-77
2023/04/07 12:32:59;;;;;;;3.88;1.88;;;10.80;99.90;;;;;;4985395;28;20046;-76
2023/04/07 12:35:25;;;;;;;5.15;2.20;;;10.80;99.90;;;;;;4985452;28;20046;-78
2023/04/07 12:37:51;;;;;;;4.05;2.10;;;10.70;99.90;;;;;;4986169;28;20100;-77
2023/04/07 12:40:17;;;;;;;2.42;1.95;;;10.70;99.90;;;;;;4976133;28;20069;-77
2023/04/07 12:42:43;;;;;;;2.63;2.30;;;10.60;99.90;;;;;;4982420;28;20039;-77
2023/04/07 12:45:09;;;;;;;4.50;2.92;;;10.50;99.90;;;;;;4981898;28;20054;-77
2023/04/07 12:47:34;;;;;;;4.60;1.95;;;10.50;99.90;;;;;;4983511;28;20046;-78
2023/04/07 12:50:00;;;;;;;4.72;2.50;;;10.50;99.90;;;;;;4965731;28;20043;-77
2023/04/07 12:52:26;;;;;;;3.85;2.40;;;10.50;99.90;;;;;;4966243;28;20111;-77
2023/04/07 12:54:52;;;;;;;3.67;2.13;;;10.40;99.90;;;;;;4966474;28;20096;-77